createdAt,value
2023-03-05T00:01:57.406Z,74.38
2023-03-05T00:05:58.795Z,74.90
2023-03-05T00:10:04.523Z,74.48
2023-03-05T00:14:06.393Z,74.12
2023-03-05T00:18:07.833Z,73.67
2023-03-05T00:22:09.246Z,73.63
2023-03-05T00:26:12.033Z,73.77
2023-03-05T00:30:14.312Z,74.04
2023-03-05T00:34:18.781Z,74.05
2023-03-05T00:38:20.346Z,74.48
2023-03-05T00:42:23.186Z,74.64
2023-03-05T00:46:24.958Z,74.49
2023-03-05T00:50:26.656Z,74.24
2023-03-05T00:54:28.079Z,74.51
2023-03-05T00:58:31.024Z,74.80
2023-03-05T01:02:34.703Z,74.88
2023-03-05T01:06:36.296Z,75.07
2023-03-05T01:10:37.791Z,74.94
2023-03-05T01:14:40.540Z,74.66
2023-03-05T01:18:42.022Z,73.79
2023-03-05T01:22:43.767Z,73.89
2023-03-05T01:26:45.228Z,74.46
2023-03-05T01:30:49.615Z,74.03
2023-03-05T01:34:51.122Z,74.16
2023-03-05T01:38:52.725Z,73.98
2023-03-05T01:42:59.777Z,73.78
2023-03-05T01:47:02.533Z,73.14
2023-03-05T01:51:04.554Z,72.92
2023-03-05T01:55:09.832Z,72.78
2023-03-05T01:59:13.326Z,72.48
2023-03-05T02:03:16.510Z,72.20
2023-03-05T02:07:18.651Z,72.50
2023-03-05T02:11:20.261Z,72.26
2023-03-05T02:15:22.132Z,72.23
2023-03-05T02:19:24.990Z,72.47
2023-03-05T02:23:30.377Z,72.50
2023-03-05T02:27:33.271Z,72.61
2023-03-05T02:31:34.855Z,72.97
2023-03-05T02:35:36.433Z,72.51
2023-03-05T02:39:39.243Z,72.39
2023-03-05T02:43:41.507Z,72.75
2023-03-05T02:47:43.045Z,73.30
2023-03-05T02:51:44.496Z,73.58
2023-03-05T02:55:48.527Z,73.68
2023-03-05T02:59:50.633Z,74.26
2023-03-05T03:03:52.119Z,74.95
2023-03-05T03:07:53.530Z,74.78
2023-03-05T03:11:56.364Z,75.22
2023-03-05T03:16:02.292Z,74.91
2023-03-05T03:20:05.062Z,74.97
2023-03-05T03:24:06.910Z,75.26
2023-03-05T03:28:09.651Z,75.55
2023-03-05T03:32:11.174Z,75.09
2023-03-05T03:36:12.878Z,76.06
2023-03-05T03:40:14.451Z,75.78
2023-03-05T03:44:18.039Z,75.46
2023-03-05T03:48:19.498Z,75.79
2023-03-05T03:52:20.994Z,75.30
2023-03-05T03:56:22.498Z,75.92
2023-03-05T04:00:25.266Z,75.63
2023-03-05T04:04:26.901Z,76.02
2023-03-05T04:08:28.475Z,77.78
2023-03-05T04:12:29.931Z,76.57
2023-03-05T04:16:32.827Z,76.24
2023-03-05T04:20:34.243Z,75.76
2023-03-05T04:24:35.643Z,76.21
2023-03-05T04:28:37.415Z,74.53
2023-03-05T04:32:40.283Z,74.45
2023-03-05T04:36:41.740Z,74.56
2023-03-05T04:40:43.948Z,74.93
2023-03-05T04:44:45.613Z,75.27
2023-03-05T04:48:48.408Z,76.39
2023-03-05T04:52:50.074Z,76.41
2023-03-05T04:56:51.532Z,76.14
2023-03-05T05:00:52.999Z,76.65
2023-03-05T05:04:55.810Z,76.26
2023-03-05T05:08:57.610Z,77.39
2023-03-05T05:12:59.133Z,77.30
2023-03-05T05:17:00.610Z,77.42
2023-03-05T05:21:07.401Z,77.23
2023-03-05T05:25:10.170Z,77.18
2023-03-05T05:29:11.634Z,77.36
2023-03-05T05:33:13.043Z,77.58
2023-03-05T05:37:15.794Z,77.19
2023-03-05T05:41:18.715Z,77.36
2023-03-05T05:45:20.281Z,77.69
2023-03-05T05:49:21.775Z,77.65
2023-03-05T05:53:25.066Z,78.05
2023-03-05T05:57:26.545Z,77.90
2023-03-05T06:01:30.620Z,78.15
2023-03-05T06:05:32.065Z,78.87
2023-03-05T06:09:36.310Z,78.36
2023-03-05T06:13:38.701Z,78.33
2023-03-05T06:17:40.609Z,78.28
2023-03-05T06:21:42.723Z,78.27
2023-03-05T06:25:45.472Z,78.35
2023-03-05T06:29:46.945Z,78.47
2023-03-05T06:33:48.852Z,78.04
2023-03-05T06:37:50.230Z,78.23
2023-03-05T06:41:53.109Z,78.17
2023-03-05T06:46:02.351Z,78.29
2023-03-05T06:50:04.438Z,78.62
2023-03-05T06:54:08.833Z,79.41
2023-03-05T06:58:11.554Z,79.20
2023-03-05T07:02:13.061Z,79.31
2023-03-05T07:06:14.661Z,79.79
2023-03-05T07:10:16.244Z,79.66
2023-03-05T07:14:19.038Z,79.66
2023-03-05T07:18:20.602Z,79.48
2023-03-05T07:22:22.022Z,78.84
2023-03-05T07:26:24.114Z,80.01
2023-03-05T07:30:27.258Z,80.01
2023-03-05T07:34:28.646Z,77.91
2023-03-05T07:38:30.294Z,78.07
2023-03-05T07:42:31.848Z,77.74
2023-03-05T07:46:35.414Z,77.08
2023-03-05T07:50:36.850Z,76.59
2023-03-05T07:54:39.416Z,76.36
2023-03-05T07:58:41.049Z,76.23
2023-03-05T08:02:43.935Z,75.84
2023-03-05T08:06:45.371Z,75.75
2023-03-05T08:10:46.782Z,76.66
2023-03-05T08:14:48.447Z,76.05
2023-03-05T08:18:54.312Z,76.29
2023-03-05T08:22:55.770Z,75.97
2023-03-05T08:26:57.458Z,75.96
2023-03-05T08:30:58.892Z,76.03
2023-03-05T08:35:01.890Z,76.81
2023-03-05T08:39:03.506Z,76.66
2023-03-05T08:43:05.031Z,77.00
2023-03-05T08:47:08.036Z,75.96
2023-03-05T08:51:12.986Z,76.49
2023-03-05T08:55:14.450Z,76.40
2023-03-05T08:59:15.917Z,76.33
2023-03-05T09:03:18.089Z,76.45
2023-03-05T09:07:21.222Z,76.73
2023-03-05T09:11:23.278Z,76.31
2023-03-05T09:15:24.630Z,75.81
2023-03-05T09:19:26.035Z,75.09
2023-03-05T09:23:28.800Z,74.06
2023-03-05T09:27:33.298Z,72.47
2023-03-05T09:31:34.843Z,70.27
2023-03-05T09:35:37.721Z,68.83
2023-03-05T09:39:40.559Z,69.69
2023-03-05T09:43:51.857Z,70.47
2023-03-05T09:48:01.400Z,70.25
2023-03-05T09:52:11.260Z,70.31
2023-03-05T09:56:17.239Z,70.77
2023-03-05T10:00:32.406Z,70.04
2023-03-05T10:04:44.965Z,68.55
2023-03-05T10:08:53.519Z,68.52
2023-03-05T10:13:03.784Z,68.84
2023-03-05T10:17:22.998Z,68.43
2023-03-05T10:21:30.818Z,69.40
2023-03-05T10:25:48.811Z,69.33
2023-03-05T10:30:06.104Z,69.71
2023-03-05T10:34:23.448Z,70.03
2023-03-05T10:38:42.982Z,70.67
2023-03-05T10:42:52.434Z,71.65
2023-03-05T10:46:57.927Z,72.84
2023-03-05T10:51:04.564Z,74.22
2023-03-05T10:55:14.387Z,75.26
2023-03-05T10:59:16.442Z,76.52
2023-03-05T11:03:19.204Z,76.62
2023-03-05T11:07:36.549Z,76.20
2023-03-05T11:11:38.133Z,77.56
2023-03-05T11:15:39.688Z,76.64
2023-03-05T11:19:42.699Z,74.79
2023-03-05T11:23:44.171Z,73.89
2023-03-05T11:27:52.011Z,72.98
2023-03-05T11:31:56.511Z,74.00
2023-03-05T11:36:26.726Z,73.81
2023-03-05T11:40:30.508Z,72.49
2023-03-05T11:44:35.466Z,72.87
2023-03-05T11:48:39.430Z,72.78
2023-03-05T11:52:46.231Z,72.94
2023-03-05T11:56:47.774Z,73.02
2023-03-05T12:00:49.342Z,71.61
2023-03-05T12:04:51.213Z,71.48
2023-03-05T12:08:55.851Z,70.49
2023-03-05T12:13:05.034Z,70.71
2023-03-05T12:17:15.846Z,71.73
2023-03-05T12:21:27.480Z,71.36
2023-03-05T12:25:33.685Z,71.55
2023-03-05T12:29:41.623Z,71.10
2023-03-05T12:33:43.644Z,70.45
2023-03-05T12:38:02.946Z,70.94
2023-03-05T12:42:45.854Z,71.67
2023-03-05T12:47:15.269Z,72.49
2023-03-05T12:51:38.045Z,72.67
2023-03-05T12:55:51.004Z,73.25
2023-03-05T13:00:01.255Z,74.24
2023-03-05T13:04:05.959Z,75.26
2023-03-05T13:08:15.800Z,74.69
2023-03-05T13:12:17.642Z,75.06
2023-03-05T13:16:23.311Z,74.25
2023-03-05T13:20:29.282Z,73.85
2023-03-05T13:24:31.091Z,73.47
2023-03-05T13:28:32.887Z,72.62
2023-03-05T13:32:38.085Z,72.31
2023-03-05T13:36:40.249Z,73.27
2023-03-05T13:40:41.794Z,73.06
2023-03-05T13:44:43.784Z,72.75
2023-03-05T13:48:46.509Z,76.85
2023-03-05T13:52:47.885Z,79.25
2023-03-05T13:56:54.220Z,78.03
2023-03-05T14:01:03.495Z,78.18
2023-03-05T14:05:15.144Z,76.76
2023-03-05T14:09:20.567Z,76.80
2023-03-05T14:13:24.724Z,77.55
2023-03-05T14:17:39.417Z,76.56
2023-03-05T14:21:47.739Z,74.51
2023-03-05T14:25:49.264Z,76.36
2023-03-05T14:29:50.934Z,74.54
2023-03-05T14:33:53.661Z,74.43
2023-03-05T14:37:58.193Z,74.17
2023-03-05T14:42:29.089Z,73.45
2023-03-05T14:46:30.559Z,74.37
2023-03-05T14:50:34.069Z,74.89
2023-03-05T14:54:37.271Z,73.65
2023-03-05T14:58:38.735Z,73.48
2023-03-05T15:02:40.239Z,72.67
2023-03-05T15:06:41.984Z,72.17
2023-03-05T15:10:44.831Z,72.47
2023-03-05T15:14:46.229Z,72.66
2023-03-05T15:18:47.972Z,71.86
2023-03-05T15:22:49.582Z,72.02
2023-03-05T15:26:52.557Z,72.80
2023-03-05T15:30:54.041Z,72.70
2023-03-05T15:34:58.087Z,72.60
2023-03-05T15:38:59.493Z,72.81
2023-03-05T15:43:02.630Z,72.75
2023-03-05T15:47:04.012Z,72.52
2023-03-05T15:51:07.211Z,72.72
2023-03-05T15:55:09.508Z,73.25
2023-03-05T15:59:12.351Z,73.42
2023-03-05T16:03:13.770Z,73.65
2023-03-05T16:07:15.589Z,73.78
2023-03-05T16:11:19.784Z,73.80
2023-03-05T16:15:23.252Z,74.17
2023-03-05T16:19:25.845Z,74.81
2023-03-05T16:23:27.352Z,75.18
2023-03-05T16:27:29.309Z,75.52
2023-03-05T16:31:33.667Z,75.43
2023-03-05T16:35:35.171Z,76.51
2023-03-05T16:39:36.738Z,75.82
2023-03-05T16:43:38.243Z,76.18
2023-03-05T16:47:41.198Z,75.72
2023-03-05T16:51:42.619Z,76.33
2023-03-05T16:55:44.061Z,76.85
2023-03-05T16:59:45.480Z,76.60
2023-03-05T17:03:48.881Z,76.35
2023-03-05T17:07:50.379Z,76.26
2023-03-05T17:11:52.037Z,76.53
2023-03-05T17:15:56.270Z,77.25
2023-03-05T17:20:00.324Z,77.02
2023-03-05T17:24:01.786Z,77.24
2023-03-05T17:28:03.546Z,78.20
2023-03-05T17:32:06.093Z,77.77
2023-03-05T17:36:14.664Z,78.01
2023-03-05T17:40:16.898Z,77.88
2023-03-05T17:44:18.333Z,77.72
2023-03-05T17:48:19.807Z,78.40
2023-03-05T17:52:22.597Z,78.39
2023-03-05T17:56:25.239Z,78.41
2023-03-05T18:00:30.076Z,77.97
2023-03-05T18:04:31.605Z,76.88
2023-03-05T18:08:34.350Z,76.93
2023-03-05T18:12:36.262Z,77.34
2023-03-05T18:16:37.812Z,77.47
2023-03-05T18:20:39.357Z,76.92
2023-03-05T18:24:42.142Z,76.54
2023-03-05T18:28:43.680Z,76.20
2023-03-05T18:32:45.025Z,76.64
2023-03-05T18:36:46.571Z,77.15
2023-03-05T18:40:52.623Z,77.18
2023-03-05T18:44:54.006Z,77.69
2023-03-05T18:48:55.511Z,77.49
2023-03-05T18:52:57.205Z,77.46
2023-03-05T18:56:59.959Z,76.40
2023-03-05T19:01:01.397Z,76.65
2023-03-05T19:05:03.164Z,76.68
2023-03-05T19:09:34.440Z,76.33
2023-03-05T19:13:37.222Z,76.35
2023-03-05T19:17:38.687Z,76.76
2023-03-05T19:21:40.379Z,77.14
2023-03-05T19:25:41.773Z,77.05
2023-03-05T19:29:44.579Z,77.04
2023-03-05T19:33:45.943Z,77.51
2023-03-05T19:37:47.327Z,77.51
2023-03-05T19:41:48.745Z,77.03
2023-03-05T19:45:51.483Z,77.39
2023-03-05T19:49:52.928Z,77.34
2023-03-05T19:53:54.348Z,77.67
2023-03-05T19:57:55.718Z,77.83
2023-03-05T20:01:58.503Z,78.47
2023-03-05T20:06:00.037Z,79.20
2023-03-05T20:10:01.501Z,78.91
2023-03-05T20:14:03.067Z,79.15
2023-03-05T20:18:05.882Z,78.66
2023-03-05T20:22:07.309Z,79.12
2023-03-05T20:26:08.669Z,79.61
2023-03-05T20:30:13.058Z,80.53
2023-03-05T20:34:18.430Z,80.21
2023-03-05T20:38:20.876Z,81.15
2023-03-05T20:42:22.371Z,81.42
2023-03-05T20:46:24.997Z,82.03
2023-03-05T20:50:27.860Z,82.63
2023-03-05T20:54:29.295Z,83.03
2023-03-05T20:58:30.699Z,83.31
2023-03-05T21:02:32.115Z,83.79
2023-03-05T21:06:35.455Z,84.08
2023-03-05T21:10:37.544Z,84.36
2023-03-05T21:14:38.918Z,83.70
2023-03-05T21:18:40.435Z,83.90
2023-03-05T21:22:43.151Z,84.48
2023-03-05T21:26:44.596Z,84.19
2023-03-05T21:30:47.882Z,84.10
2023-03-05T21:34:49.267Z,84.16
2023-03-05T21:38:51.996Z,84.57
2023-03-05T21:42:53.450Z,84.34
2023-03-05T21:46:54.808Z,84.25
2023-03-05T21:50:56.543Z,84.82
2023-03-05T21:54:59.277Z,85.34
2023-03-05T21:59:00.658Z,85.83
2023-03-05T22:03:02.042Z,85.79
2023-03-05T22:07:04.941Z,86.17
2023-03-05T22:11:10.044Z,86.22
2023-03-05T22:15:11.673Z,86.00
2023-03-05T22:19:13.047Z,85.88
2023-03-05T22:23:15.674Z,85.80
2023-03-05T22:27:18.401Z,85.71
2023-03-05T22:31:21.027Z,85.30
2023-03-05T22:35:22.453Z,84.89
2023-03-05T22:39:23.857Z,85.65
2023-03-05T22:43:26.621Z,84.61
2023-03-05T22:47:27.998Z,85.02
2023-03-05T22:51:29.376Z,85.52
2023-03-05T22:55:30.780Z,85.65
2023-03-05T22:59:33.497Z,85.64
2023-03-05T23:03:34.946Z,86.21
2023-03-05T23:07:38.887Z,86.32
2023-03-05T23:11:40.452Z,87.16
2023-03-05T23:15:43.164Z,86.51
2023-03-05T23:19:44.561Z,86.62
2023-03-05T23:23:45.964Z,87.53
2023-03-05T23:27:47.843Z,87.46
2023-03-05T23:31:53.695Z,87.61
2023-03-05T23:35:57.667Z,88.20
2023-03-05T23:39:59.226Z,88.60
2023-03-05T23:44:00.617Z,88.67
2023-03-05T23:48:03.779Z,88.88
2023-03-05T23:52:05.700Z,88.93
2023-03-05T23:56:11.514Z,89.67
